createdAt,value
2022-08-17T00:01:52.869Z,1.45
2022-08-17T00:04:20.525Z,2.25
2022-08-17T00:06:49.328Z,1.55
2022-08-17T00:09:18.943Z,1.65
2022-08-17T00:12:41.652Z,1.73
2022-08-17T00:14:36.217Z,2.17
2022-08-17T00:17:04.805Z,1.70
2022-08-17T00:19:33.093Z,2.08
2022-08-17T00:22:34.266Z,1.90
2022-08-17T00:25:12.178Z,1.80
2022-08-17T00:27:39.444Z,1.73
2022-08-17T00:30:09.624Z,2.33
2022-08-17T00:35:31.597Z,2.28
2022-08-17T00:38:17.051Z,2.10
2022-08-17T00:41:13.578Z,1.48
2022-08-17T00:43:51.940Z,1.75
2022-08-17T00:46:39.385Z,2.00
2022-08-17T00:49:07.330Z,1.50
2022-08-17T00:51:43.280Z,2.17
2022-08-17T00:54:14.167Z,2.53
2022-08-17T00:56:47.816Z,1.88
2022-08-17T01:02:06.385Z,1.63
2022-08-17T01:04:33.710Z,2.45
2022-08-17T01:07:03.497Z,2.10
2022-08-17T01:09:31.459Z,1.42
2022-08-17T01:11:58.423Z,2.65
2022-08-17T01:14:26.547Z,1.25
2022-08-17T01:16:55.145Z,1.45
2022-08-17T01:19:24.943Z,1.70
2022-08-17T01:21:51.789Z,1.60
2022-08-17T01:24:39.850Z,1.92
2022-08-17T01:27:10.176Z,1.40
2022-08-17T01:29:41.174Z,2.08
2022-08-17T01:32:08.566Z,1.20
2022-08-17T01:34:43.646Z,1.73
2022-08-17T01:37:17.750Z,1.85
2022-08-17T01:39:54.968Z,1.63
2022-08-17T01:42:37.072Z,1.67
2022-08-17T01:45:26.630Z,1.67
2022-08-17T01:47:54.551Z,2.20
2022-08-17T01:50:26.910Z,2.03
2022-08-17T01:53:34.359Z,1.50
2022-08-17T01:56:10.802Z,1.55
2022-08-17T01:58:39.956Z,1.65
2022-08-17T02:01:09.033Z,1.50
2022-08-17T02:03:37.463Z,1.63
2022-08-17T02:06:06.365Z,1.77
2022-08-17T02:09:01.981Z,2.40
2022-08-17T02:11:32.416Z,1.70
2022-08-17T02:14:03.285Z,2.13
2022-08-17T02:17:08.367Z,1.38
2022-08-17T02:19:35.414Z,1.70
2022-08-17T02:22:02.225Z,1.65
2022-08-17T02:25:01.187Z,2.53
2022-08-17T02:27:21.497Z,1.42
2022-08-17T02:29:48.394Z,1.45
2022-08-17T02:32:28.243Z,1.85
2022-08-17T02:34:57.439Z,1.60
2022-08-17T02:37:25.671Z,1.25
2022-08-17T02:39:53.046Z,2.28
2022-08-17T02:42:27.807Z,1.23
2022-08-17T02:44:58.422Z,1.15
2022-08-17T02:47:25.354Z,1.30
2022-08-17T02:49:54.440Z,1.50
2022-08-17T02:52:43.020Z,1.73
2022-08-17T02:55:16.892Z,1.45
2022-08-17T02:57:44.725Z,1.60
2022-08-17T03:00:16.591Z,2.03
2022-08-17T03:02:44.877Z,1.42
2022-08-17T03:05:14.130Z,1.70
2022-08-17T03:07:40.970Z,1.60
2022-08-17T03:10:09.030Z,1.38
2022-08-17T03:12:38.786Z,1.88
2022-08-17T03:15:09.845Z,2.08
2022-08-17T03:17:37.158Z,1.50
2022-08-17T03:20:05.936Z,1.67
2022-08-17T03:22:39.909Z,2.13
2022-08-17T03:25:10.768Z,1.35
2022-08-17T03:27:38.265Z,1.48
2022-08-17T03:30:28.145Z,1.63
2022-08-17T03:33:00.714Z,1.67
2022-08-17T03:35:30.875Z,1.20
2022-08-17T03:38:00.799Z,1.10
2022-08-17T03:40:58.651Z,1.13
2022-08-17T03:43:29.600Z,1.10
2022-08-17T03:46:34.476Z,0.90
2022-08-17T03:49:25.622Z,0.88
2022-08-17T03:52:16.017Z,1.30
2022-08-17T03:55:02.893Z,0.80
2022-08-17T03:57:31.030Z,1.25
2022-08-17T03:59:58.329Z,0.80
2022-08-17T04:02:32.066Z,0.55
2022-08-17T04:04:59.450Z,0.82
2022-08-17T04:07:28.755Z,0.60
2022-08-17T04:09:55.890Z,0.98
2022-08-17T04:12:24.198Z,0.85
2022-08-17T04:14:53.107Z,0.60
2022-08-17T04:17:27.862Z,0.68
2022-08-17T04:19:55.801Z,0.57
2022-08-17T04:22:31.850Z,0.95
2022-08-17T04:25:19.694Z,0.85
2022-08-17T04:27:48.334Z,0.57
2022-08-17T04:30:15.754Z,0.70
2022-08-17T04:33:05.222Z,0.30
2022-08-17T04:36:00.243Z,0.30
2022-08-17T04:41:52.332Z,0.60
2022-08-17T04:44:27.224Z,0.95
2022-08-17T04:47:23.045Z,0.77
2022-08-17T04:49:49.994Z,0.68
2022-08-17T04:52:32.326Z,0.40
2022-08-17T04:55:04.929Z,0.43
2022-08-17T04:57:39.403Z,0.30
2022-08-17T05:00:10.507Z,0.30
2022-08-17T05:02:57.506Z,0.38
2022-08-17T05:05:26.994Z,0.40
2022-08-17T05:07:59.312Z,0.60
2022-08-17T05:10:30.135Z,0.40
2022-08-17T05:13:24.182Z,0.30
2022-08-17T05:15:55.376Z,0.60
2022-08-17T05:18:41.434Z,0.30
2022-08-17T05:21:27.565Z,0.68
2022-08-17T05:23:58.467Z,0.70
2022-08-17T05:26:29.485Z,0.30
2022-08-17T05:28:58.508Z,0.98
2022-08-17T05:31:27.609Z,0.20
2022-08-17T05:33:54.464Z,0.50
2022-08-17T05:36:42.331Z,0.63
2022-08-17T05:39:27.283Z,0.35
2022-08-17T05:41:54.266Z,0.45
2022-08-17T05:44:21.254Z,0.43
2022-08-17T05:46:51.426Z,0.35
2022-08-17T05:49:27.288Z,0.85
2022-08-17T05:52:23.977Z,0.80
2022-08-17T05:55:18.116Z,0.68
2022-08-17T05:57:53.929Z,0.63
2022-08-17T06:00:31.632Z,0.50
2022-08-17T06:03:01.377Z,0.65
2022-08-17T06:05:58.450Z,0.50
2022-08-17T06:08:51.559Z,0.50
2022-08-17T06:11:40.695Z,0.50
2022-08-17T06:14:16.614Z,0.80
2022-08-17T06:16:51.600Z,0.40
2022-08-17T06:19:38.833Z,0.50
2022-08-17T06:22:08.632Z,0.57
2022-08-17T06:24:42.267Z,0.68
2022-08-17T06:27:19.578Z,0.52
2022-08-17T06:29:52.563Z,0.40
2022-08-17T06:32:19.526Z,0.80
2022-08-17T06:34:46.609Z,0.50
2022-08-17T06:37:25.216Z,0.82
2022-08-17T06:40:19.025Z,0.80
2022-08-17T06:43:02.548Z,0.52
2022-08-17T06:45:42.318Z,1.45
2022-08-17T06:48:24.467Z,0.47
2022-08-17T06:51:00.082Z,0.57
2022-08-17T06:53:34.479Z,1.02
2022-08-17T06:56:10.661Z,0.80
2022-08-17T06:58:40.152Z,1.02
2022-08-17T07:01:31.348Z,0.75
2022-08-17T07:03:58.335Z,0.93
2022-08-17T07:06:33.297Z,0.63
2022-08-17T07:09:15.997Z,0.85
2022-08-17T07:12:18.190Z,0.80
2022-08-17T07:15:05.510Z,0.55
2022-08-17T07:17:46.909Z,0.52
2022-08-17T07:20:22.761Z,0.70
2022-08-17T07:23:03.592Z,0.57
2022-08-17T07:25:31.053Z,0.65
2022-08-17T07:28:06.004Z,0.88
2022-08-17T07:30:54.267Z,1.33
2022-08-17T07:33:25.794Z,0.85
2022-08-17T07:35:53.283Z,0.93
2022-08-17T07:38:28.475Z,0.93
2022-08-17T07:40:59.926Z,0.80
2022-08-17T07:43:29.454Z,0.60
2022-08-17T07:46:40.581Z,0.50
2022-08-17T07:49:10.487Z,0.60
2022-08-17T07:51:40.831Z,0.60
2022-08-17T07:54:18.539Z,0.80
2022-08-17T07:57:15.609Z,0.90
2022-08-17T08:03:00.479Z,0.93
2022-08-17T08:06:20.933Z,0.50
2022-08-17T08:08:58.429Z,0.82
2022-08-17T08:11:32.155Z,0.47
2022-08-17T08:14:39.768Z,0.60
2022-08-17T08:17:09.219Z,0.88
2022-08-17T08:19:36.666Z,1.13
2022-08-17T08:22:18.685Z,0.70
2022-08-17T08:24:58.491Z,0.80
2022-08-17T08:28:04.839Z,0.63
2022-08-17T08:30:37.480Z,0.70
2022-08-17T08:33:22.489Z,0.70
2022-08-17T08:35:55.253Z,0.70
2022-08-17T08:38:37.001Z,0.77
2022-08-17T08:41:26.283Z,0.60
2022-08-17T08:44:22.257Z,0.57
2022-08-17T08:47:27.781Z,0.73
2022-08-17T08:50:30.195Z,0.73
2022-08-17T08:53:15.995Z,0.60
2022-08-17T08:55:54.931Z,0.65
2022-08-17T08:58:43.670Z,0.50
2022-08-17T09:01:22.983Z,0.52
2022-08-17T09:04:21.450Z,0.60
2022-08-17T09:06:56.541Z,0.63
2022-08-17T09:09:41.537Z,0.50
2022-08-17T09:12:15.358Z,0.52
2022-08-17T09:14:59.573Z,0.63
2022-08-17T09:19:01.848Z,0.70
2022-08-17T09:20:57.354Z,1.15
2022-08-17T09:23:36.361Z,0.80
2022-08-17T09:26:21.106Z,0.60
2022-08-17T09:28:51.660Z,0.70
2022-08-17T09:31:29.961Z,0.30
2022-08-17T09:34:03.595Z,0.50
2022-08-17T09:37:03.378Z,0.45
2022-08-17T09:39:46.871Z,0.20
2022-08-17T09:42:31.078Z,0.60
2022-08-17T09:45:13.621Z,0.45
2022-08-17T09:48:12.443Z,0.50
2022-08-17T09:51:04.246Z,0.50
2022-08-17T09:53:35.806Z,0.20
2022-08-17T09:56:20.890Z,0.40
2022-08-17T09:59:17.503Z,0.40
2022-08-17T10:01:52.643Z,0.60
2022-08-17T10:04:59.462Z,0.65
2022-08-17T10:07:44.803Z,0.50
2022-08-17T10:10:25.795Z,0.77
2022-08-17T10:13:04.945Z,0.60
2022-08-17T10:15:53.884Z,0.50
2022-08-17T10:18:43.041Z,0.77
2022-08-17T10:21:33.921Z,0.30
2022-08-17T10:24:25.152Z,0.52
2022-08-17T10:26:56.608Z,0.50
2022-08-17T10:29:53.857Z,0.50
2022-08-17T10:32:34.998Z,0.35
2022-08-17T10:35:27.248Z,0.50
2022-08-17T10:37:59.842Z,0.40
2022-08-17T10:40:56.067Z,0.50
2022-08-17T10:44:37.483Z,0.73
2022-08-17T10:46:54.048Z,0.57
2022-08-17T10:49:21.226Z,0.52
2022-08-17T10:51:53.556Z,0.52
2022-08-17T10:54:47.350Z,0.93
2022-08-17T10:57:29.285Z,0.47
2022-08-17T11:00:17.570Z,0.43
2022-08-17T11:02:55.954Z,0.50
2022-08-17T11:05:27.682Z,0.50
2022-08-17T11:08:37.797Z,0.98
2022-08-17T11:11:14.057Z,0.52
2022-08-17T11:13:50.021Z,0.43
2022-08-17T11:16:16.915Z,0.63
2022-08-17T11:19:10.036Z,1.10
2022-08-17T11:21:42.498Z,0.70
2022-08-17T11:24:33.967Z,0.60
2022-08-17T11:27:27.350Z,0.60
2022-08-17T11:30:02.266Z,0.47
2022-08-17T11:32:47.515Z,0.80
2022-08-17T11:35:21.900Z,0.63
2022-08-17T11:38:28.392Z,0.55
2022-08-17T11:41:27.488Z,0.70
2022-08-17T11:44:17.721Z,0.50
2022-08-17T11:47:33.931Z,0.65
2022-08-17T11:50:44.440Z,0.93
2022-08-17T11:54:14.611Z,0.77
2022-08-17T11:56:49.784Z,0.40
2022-08-17T11:59:43.951Z,0.95
2022-08-17T12:02:19.908Z,0.50
2022-08-17T12:05:14.291Z,0.70
2022-08-17T12:07:49.108Z,0.50
2022-08-17T12:10:21.533Z,0.60
2022-08-17T12:12:53.193Z,0.50
2022-08-17T12:15:30.112Z,0.60
2022-08-17T12:17:57.922Z,0.90
2022-08-17T12:20:38.497Z,0.45
2022-08-17T12:23:20.593Z,0.40
2022-08-17T12:26:00.222Z,0.70
2022-08-17T12:31:43.275Z,0.57
2022-08-17T12:34:19.751Z,0.65
2022-08-17T12:36:53.003Z,0.60
2022-08-17T12:39:24.962Z,0.52
2022-08-17T12:42:01.554Z,0.73
2022-08-17T12:44:33.573Z,0.50
2022-08-17T12:47:10.800Z,0.30
2022-08-17T12:49:40.971Z,0.50
2022-08-17T12:52:11.338Z,0.65
2022-08-17T12:54:51.238Z,0.47
2022-08-17T13:00:47.540Z,0.22
2022-08-17T13:03:22.521Z,0.60
2022-08-17T13:05:52.125Z,0.50
2022-08-17T13:08:27.345Z,0.40
2022-08-17T13:11:00.160Z,0.38
2022-08-17T13:13:31.277Z,0.60
2022-08-17T13:16:03.113Z,0.57
2022-08-17T13:18:46.920Z,0.60
2022-08-17T13:21:20.202Z,0.57
2022-08-17T13:24:11.082Z,0.35
2022-08-17T13:26:51.943Z,0.40
2022-08-17T13:29:34.767Z,0.57
2022-08-17T13:32:07.933Z,0.20
2022-08-17T13:35:05.895Z,0.55
2022-08-17T13:37:36.752Z,0.40
2022-08-17T13:40:07.566Z,0.55
2022-08-17T13:42:52.001Z,0.35
2022-08-17T13:45:34.997Z,0.68
2022-08-17T13:48:13.596Z,0.50
2022-08-17T13:51:05.066Z,0.75
2022-08-17T13:53:37.789Z,0.68
2022-08-17T13:56:37.407Z,0.57
2022-08-17T13:59:36.417Z,0.43
2022-08-17T14:02:17.773Z,0.47
2022-08-17T14:05:06.390Z,0.50
2022-08-17T14:07:39.645Z,0.93
2022-08-17T14:10:11.687Z,0.63
2022-08-17T14:12:41.710Z,0.45
2022-08-17T14:15:09.970Z,0.40
2022-08-17T14:17:39.106Z,0.95
2022-08-17T14:20:10.594Z,0.85
2022-08-17T14:22:56.341Z,0.22
2022-08-17T14:25:27.093Z,0.63
2022-08-17T14:27:55.060Z,0.40
2022-08-17T14:30:24.935Z,0.57
2022-08-17T14:33:10.438Z,0.40
2022-08-17T14:35:37.238Z,0.82
2022-08-17T14:38:04.036Z,0.60
2022-08-17T14:40:31.569Z,0.52
2022-08-17T14:42:58.491Z,0.70
2022-08-17T14:45:31.773Z,0.88
2022-08-17T14:48:02.026Z,0.28
2022-08-17T14:50:28.805Z,0.47
2022-08-17T14:52:59.255Z,0.35
2022-08-17T14:55:29.811Z,0.55
2022-08-17T14:57:56.808Z,0.60
2022-08-17T15:00:23.742Z,0.40
2022-08-17T15:02:54.135Z,0.50
2022-08-17T15:05:27.258Z,0.57
2022-08-17T15:07:54.333Z,0.32
2022-08-17T15:10:21.880Z,0.90
2022-08-17T15:12:49.252Z,0.30
2022-08-17T15:15:17.806Z,0.77
2022-08-17T15:17:46.008Z,0.50
2022-08-17T15:20:20.346Z,0.77
2022-08-17T15:22:49.979Z,0.52
2022-08-17T15:25:19.337Z,1.10
2022-08-17T15:27:47.657Z,0.50
2022-08-17T15:30:15.931Z,0.70
2022-08-17T15:32:50.983Z,0.57
2022-08-17T15:35:22.093Z,0.85
2022-08-17T15:38:18.961Z,0.43
2022-08-17T15:40:49.938Z,0.80
2022-08-17T15:43:32.451Z,0.57
2022-08-17T15:46:12.393Z,0.50
2022-08-17T15:48:42.346Z,0.50
2022-08-17T15:51:43.896Z,0.38
2022-08-17T15:54:17.258Z,0.55
2022-08-17T15:56:49.056Z,0.47
2022-08-17T15:59:35.738Z,0.55
2022-08-17T16:03:15.224Z,1.25
2022-08-17T16:04:49.648Z,0.60
2022-08-17T16:07:21.874Z,0.65
2022-08-17T16:09:51.357Z,0.75
2022-08-17T16:12:21.237Z,0.50
2022-08-17T16:14:50.106Z,0.52
2022-08-17T16:17:38.594Z,0.90
2022-08-17T16:20:05.618Z,0.47
2022-08-17T16:22:37.462Z,0.50
2022-08-17T16:25:12.626Z,0.70
2022-08-17T16:27:59.218Z,0.60
2022-08-17T16:30:28.366Z,1.02
2022-08-17T16:32:57.536Z,0.60
2022-08-17T16:35:26.921Z,0.90
2022-08-17T16:37:57.235Z,0.68
2022-08-17T16:40:27.615Z,0.50
2022-08-17T16:42:55.704Z,0.98
2022-08-17T16:45:36.682Z,0.73
2022-08-17T16:48:04.535Z,0.57
2022-08-17T16:50:32.364Z,0.50
2022-08-17T16:53:19.458Z,0.60
2022-08-17T16:55:48.350Z,0.93
2022-08-17T16:58:15.923Z,0.80
2022-08-17T17:00:45.841Z,0.88
2022-08-17T17:03:19.839Z,0.75
2022-08-17T17:06:06.391Z,0.95
2022-08-17T17:08:44.625Z,1.05
2022-08-17T17:11:36.479Z,0.75
2022-08-17T17:14:15.829Z,0.52
2022-08-17T17:17:02.646Z,0.73
2022-08-17T17:19:37.832Z,0.52
2022-08-17T17:22:15.354Z,0.63
2022-08-17T17:25:07.076Z,0.88
2022-08-17T17:27:50.573Z,0.60
2022-08-17T17:30:25.027Z,0.90
2022-08-17T17:33:02.863Z,0.68
2022-08-17T17:35:40.474Z,0.80
2022-08-17T17:38:29.439Z,0.63
2022-08-17T17:41:02.295Z,0.47
2022-08-17T17:43:40.316Z,0.90
2022-08-17T17:46:27.700Z,0.50
2022-08-17T17:48:57.768Z,0.88
2022-08-17T17:52:10.169Z,1.00
2022-08-17T17:55:13.285Z,0.80
2022-08-17T17:57:47.117Z,0.95
2022-08-17T18:00:51.230Z,0.60
2022-08-17T18:03:46.080Z,0.60
2022-08-17T18:06:21.958Z,0.80
2022-08-17T18:09:19.429Z,1.55
2022-08-17T18:12:03.527Z,1.00
2022-08-17T18:14:46.862Z,0.80
2022-08-17T18:17:14.590Z,0.55
2022-08-17T18:19:41.537Z,0.93
2022-08-17T18:22:15.614Z,0.70
2022-08-17T18:24:45.343Z,0.85
2022-08-17T18:27:30.829Z,0.77
2022-08-17T18:30:19.541Z,0.70
2022-08-17T18:32:46.923Z,0.60
2022-08-17T18:35:35.106Z,1.00
2022-08-17T18:38:28.137Z,0.95
2022-08-17T18:41:02.749Z,0.68
2022-08-17T18:43:53.222Z,1.13
2022-08-17T18:49:33.288Z,0.75
2022-08-17T18:52:48.087Z,0.75
2022-08-17T18:55:31.380Z,0.60
2022-08-17T18:58:15.164Z,0.70
2022-08-17T19:00:45.655Z,0.57
2022-08-17T19:03:31.776Z,0.63
2022-08-17T19:06:28.377Z,0.90
2022-08-17T19:08:55.279Z,1.10
2022-08-17T19:11:34.200Z,0.75
2022-08-17T19:14:09.175Z,0.80
2022-08-17T19:16:49.349Z,0.80
2022-08-17T19:19:38.501Z,0.88
2022-08-17T19:25:21.878Z,0.70
2022-08-17T19:27:57.466Z,1.17
2022-08-17T19:30:43.884Z,1.38
2022-08-17T19:33:10.833Z,0.90
2022-08-17T19:35:46.352Z,1.05
2022-08-17T19:38:44.142Z,0.77
2022-08-17T19:41:26.890Z,1.35
2022-08-17T19:44:14.990Z,0.82
2022-08-17T19:47:02.260Z,1.08
2022-08-17T19:49:46.667Z,1.02
2022-08-17T19:52:41.807Z,0.75
2022-08-17T19:55:22.912Z,1.00
2022-08-17T19:58:02.313Z,1.27
2022-08-17T20:00:51.408Z,1.02
2022-08-17T20:06:13.910Z,0.73
2022-08-17T20:09:37.848Z,0.88
2022-08-17T20:12:16.477Z,1.38
2022-08-17T20:14:53.663Z,1.40
2022-08-17T20:17:28.248Z,0.80
2022-08-17T20:20:07.397Z,0.95
2022-08-17T20:23:13.472Z,1.17
2022-08-17T20:25:57.483Z,0.90
2022-08-17T20:28:28.828Z,1.08
2022-08-17T20:33:42.231Z,0.90
2022-08-17T20:36:24.065Z,0.88
2022-08-17T20:38:54.827Z,1.13
2022-08-17T20:41:27.342Z,0.90
2022-08-17T20:47:37.163Z,1.35
2022-08-17T20:50:25.492Z,1.00
2022-08-17T20:53:32.326Z,1.08
2022-08-17T20:56:48.991Z,1.05
2022-08-17T20:59:26.057Z,1.67
2022-08-17T21:02:18.091Z,0.80
2022-08-17T21:04:54.559Z,1.55
2022-08-17T21:07:33.066Z,2.00
2022-08-17T21:10:21.763Z,1.33
2022-08-17T21:12:54.059Z,0.98
2022-08-17T21:15:20.958Z,1.13
2022-08-17T21:18:29.339Z,0.75
2022-08-17T21:24:00.165Z,0.98
2022-08-17T21:26:58.386Z,1.35
2022-08-17T21:30:05.123Z,0.75
2022-08-17T21:32:37.046Z,1.25
2022-08-17T21:35:28.257Z,0.82
2022-08-17T21:38:02.431Z,0.95
2022-08-17T21:40:32.617Z,0.88
2022-08-17T21:43:24.003Z,1.10
2022-08-17T21:46:23.339Z,1.40
2022-08-17T21:48:54.431Z,0.60
2022-08-17T21:51:28.734Z,1.00
2022-08-17T21:54:02.271Z,1.20
2022-08-17T21:56:48.385Z,0.80
2022-08-17T21:59:19.399Z,0.85
2022-08-17T22:02:06.022Z,1.08
2022-08-17T22:04:41.558Z,1.13
2022-08-17T22:07:13.689Z,0.60
2022-08-17T22:09:42.754Z,0.98
2022-08-17T22:12:19.771Z,0.80
2022-08-17T22:15:09.621Z,1.00
2022-08-17T22:17:45.325Z,1.27
2022-08-17T22:20:18.822Z,0.80
2022-08-17T22:23:03.910Z,1.05
2022-08-17T22:25:34.147Z,0.85
2022-08-17T22:28:36.573Z,1.20
2022-08-17T22:31:09.072Z,1.05
2022-08-17T22:33:44.790Z,0.77
2022-08-17T22:36:11.653Z,1.00
2022-08-17T22:38:40.541Z,0.95
2022-08-17T22:41:25.835Z,0.88
2022-08-17T22:43:54.313Z,1.30
2022-08-17T22:46:47.719Z,1.00
2022-08-17T22:49:26.741Z,1.25
2022-08-17T22:52:29.167Z,1.00
2022-08-17T22:55:32.663Z,1.10
2022-08-17T22:58:19.484Z,1.67
2022-08-17T23:01:31.487Z,1.23
2022-08-17T23:04:52.625Z,0.90
2022-08-17T23:07:39.090Z,1.15
2022-08-17T23:10:10.494Z,0.95
2022-08-17T23:12:59.789Z,1.00
2022-08-17T23:15:33.196Z,1.17
2022-08-17T23:18:04.722Z,1.10
2022-08-17T23:20:35.433Z,1.13
2022-08-17T23:23:06.650Z,0.77
2022-08-17T23:25:35.431Z,0.85
2022-08-17T23:28:05.467Z,0.93
2022-08-17T23:30:35.853Z,0.88
2022-08-17T23:33:07.569Z,0.70
2022-08-17T23:35:39.027Z,1.50
2022-08-17T23:38:11.038Z,0.85
2022-08-17T23:40:39.153Z,1.27
2022-08-17T23:43:24.308Z,0.57
2022-08-17T23:45:54.091Z,1.00
2022-08-17T23:48:28.562Z,1.00
2022-08-17T23:51:05.978Z,0.93
2022-08-17T23:53:34.674Z,0.60
2022-08-17T23:56:09.671Z,0.73
2022-08-17T23:59:15.872Z,0.60
